sensor_id;sensor_type;location;lat;lon;timestamp;P1;durP1;ratioP1;P2;durP2;ratioP2
26858;SDS011;14429;48.346;16.338;2023-12-14T00:02:03;7.82;;;3.95;;
26858;SDS011;14429;48.346;16.338;2023-12-14T00:04:28;7.28;;;3.75;;
26858;SDS011;14429;48.346;16.338;2023-12-14T00:06:54;6.25;;;3.97;;
26858;SDS011;14429;48.346;16.338;2023-12-14T00:09:19;6.70;;;4.00;;
26858;SDS011;14429;48.346;16.338;2023-12-14T00:11:45;6.68;;;4.28;;
26858;SDS011;14429;48.346;16.338;2023-12-14T00:14:12;7.63;;;3.97;;
26858;SDS011;14429;48.346;16.338;2023-12-14T00:16:37;5.78;;;3.55;;
26858;SDS011;14429;48.346;16.338;2023-12-14T00:19:02;6.28;;;4.07;;
26858;SDS011;14429;48.346;16.338;2023-12-14T00:21:28;6.00;;;3.67;;
26858;SDS011;14429;48.346;16.338;2023-12-14T00:23:53;6.00;;;4.00;;
26858;SDS011;14429;48.346;16.338;2023-12-14T00:26:19;6.85;;;3.67;;
26858;SDS011;14429;48.346;16.338;2023-12-14T00:28:44;7.43;;;4.07;;
26858;SDS011;14429;48.346;16.338;2023-12-14T00:31:11;16.77;;;9.77;;
26858;SDS011;14429;48.346;16.338;2023-12-14T00:33:36;19.95;;;10.18;;
26858;SDS011;14429;48.346;16.338;2023-12-14T00:36:02;8.68;;;4.93;;
26858;SDS011;14429;48.346;16.338;2023-12-14T00:38:28;19.13;;;10.52;;
26858;SDS011;14429;48.346;16.338;2023-12-14T00:40:53;5.88;;;4.15;;
26858;SDS011;14429;48.346;16.338;2023-12-14T00:43:19;5.57;;;3.65;;
26858;SDS011;14429;48.346;16.338;2023-12-14T00:45:44;6.22;;;4.15;;
26858;SDS011;14429;48.346;16.338;2023-12-14T00:48:11;7.00;;;4.20;;
26858;SDS011;14429;48.346;16.338;2023-12-14T00:50:36;6.47;;;3.53;;
26858;SDS011;14429;48.346;16.338;2023-12-14T00:53:02;8.38;;;4.20;;
26858;SDS011;14429;48.346;16.338;2023-12-14T00:55:27;6.00;;;3.55;;
26858;SDS011;14429;48.346;16.338;2023-12-14T00:57:53;7.50;;;3.80;;
26858;SDS011;14429;48.346;16.338;2023-12-14T01:00:18;5.90;;;3.60;;
26858;SDS011;14429;48.346;16.338;2023-12-14T01:02:44;5.50;;;3.40;;
26858;SDS011;14429;48.346;16.338;2023-12-14T01:05:10;8.65;;;4.35;;
26858;SDS011;14429;48.346;16.338;2023-12-14T01:07:36;8.35;;;4.70;;
26858;SDS011;14429;48.346;16.338;2023-12-14T01:10:01;8.50;;;4.20;;
26858;SDS011;14429;48.346;16.338;2023-12-14T01:12:27;4.88;;;3.67;;
26858;SDS011;14429;48.346;16.338;2023-12-14T01:14:52;5.70;;;3.42;;
26858;SDS011;14429;48.346;16.338;2023-12-14T01:17:18;7.32;;;3.83;;
26858;SDS011;14429;48.346;16.338;2023-12-14T01:19:43;9.20;;;3.70;;
26858;SDS011;14429;48.346;16.338;2023-12-14T01:22:10;7.43;;;3.92;;
26858;SDS011;14429;48.346;16.338;2023-12-14T01:24:36;6.63;;;3.83;;
26858;SDS011;14429;48.346;16.338;2023-12-14T01:27:01;6.00;;;3.63;;
26858;SDS011;14429;48.346;16.338;2023-12-14T01:29:26;6.32;;;3.50;;
26858;SDS011;14429;48.346;16.338;2023-12-14T01:31:52;5.53;;;3.65;;
26858;SDS011;14429;48.346;16.338;2023-12-14T01:34:17;7.10;;;4.10;;
26858;SDS011;14429;48.346;16.338;2023-12-14T01:36:43;7.63;;;3.95;;
26858;SDS011;14429;48.346;16.338;2023-12-14T01:39:10;6.57;;;3.75;;
26858;SDS011;14429;48.346;16.338;2023-12-14T01:41:35;5.68;;;3.10;;
26858;SDS011;14429;48.346;16.338;2023-12-14T01:44:01;7.57;;;3.38;;
26858;SDS011;14429;48.346;16.338;2023-12-14T01:46:26;6.07;;;3.55;;
26858;SDS011;14429;48.346;16.338;2023-12-14T01:48:51;5.35;;;3.55;;
26858;SDS011;14429;48.346;16.338;2023-12-14T01:51:17;8.45;;;3.83;;
26858;SDS011;14429;48.346;16.338;2023-12-14T01:53:42;5.57;;;3.78;;
26858;SDS011;14429;48.346;16.338;2023-12-14T01:56:09;5.13;;;3.28;;
26858;SDS011;14429;48.346;16.338;2023-12-14T01:58:35;5.32;;;3.85;;
26858;SDS011;14429;48.346;16.338;2023-12-14T02:01:03;5.45;;;3.45;;
26858;SDS011;14429;48.346;16.338;2023-12-14T02:03:33;5.03;;;3.25;;
26858;SDS011;14429;48.346;16.338;2023-12-14T02:05:58;9.23;;;3.90;;
26858;SDS011;14429;48.346;16.338;2023-12-14T02:08:24;5.97;;;3.42;;
26858;SDS011;14429;48.346;16.338;2023-12-14T02:10:49;5.47;;;3.90;;
26858;SDS011;14429;48.346;16.338;2023-12-14T02:13:16;6.38;;;4.05;;
26858;SDS011;14429;48.346;16.338;2023-12-14T02:15:41;8.07;;;4.15;;
26858;SDS011;14429;48.346;16.338;2023-12-14T02:18:07;6.95;;;3.85;;
26858;SDS011;14429;48.346;16.338;2023-12-14T02:20:33;5.97;;;3.85;;
26858;SDS011;14429;48.346;16.338;2023-12-14T02:23:00;5.78;;;3.33;;
26858;SDS011;14429;48.346;16.338;2023-12-14T02:25:25;4.05;;;3.05;;
26858;SDS011;14429;48.346;16.338;2023-12-14T02:27:51;6.75;;;3.25;;
26858;SDS011;14429;48.346;16.338;2023-12-14T02:30:17;3.70;;;3.00;;
26858;SDS011;14429;48.346;16.338;2023-12-14T02:32:43;5.47;;;3.45;;
26858;SDS011;14429;48.346;16.338;2023-12-14T02:35:09;5.88;;;3.22;;
26858;SDS011;14429;48.346;16.338;2023-12-14T02:37:34;4.38;;;2.95;;
26858;SDS011;14429;48.346;16.338;2023-12-14T02:40:02;5.82;;;3.25;;
26858;SDS011;14429;48.346;16.338;2023-12-14T02:42:27;7.40;;;4.10;;
26858;SDS011;14429;48.346;16.338;2023-12-14T02:44:53;4.82;;;3.53;;
26858;SDS011;14429;48.346;16.338;2023-12-14T02:47:19;7.43;;;4.45;;
26858;SDS011;14429;48.346;16.338;2023-12-14T02:49:44;6.85;;;3.60;;
26858;SDS011;14429;48.346;16.338;2023-12-14T02:52:09;8.38;;;4.53;;
26858;SDS011;14429;48.346;16.338;2023-12-14T02:54:36;6.60;;;3.45;;
26858;SDS011;14429;48.346;16.338;2023-12-14T02:57:04;13.52;;;6.32;;
26858;SDS011;14429;48.346;16.338;2023-12-14T02:59:30;5.35;;;3.92;;
26858;SDS011;14429;48.346;16.338;2023-12-14T03:01:55;7.25;;;3.75;;
26858;SDS011;14429;48.346;16.338;2023-12-14T03:04:21;4.38;;;3.30;;
26858;SDS011;14429;48.346;16.338;2023-12-14T03:06:46;4.65;;;3.13;;
26858;SDS011;14429;48.346;16.338;2023-12-14T03:09:11;7.15;;;3.60;;
26858;SDS011;14429;48.346;16.338;2023-12-14T03:11:37;5.10;;;3.30;;
26858;SDS011;14429;48.346;16.338;2023-12-14T03:14:04;7.70;;;3.25;;
26858;SDS011;14429;48.346;16.338;2023-12-14T03:16:29;5.97;;;3.47;;
26858;SDS011;14429;48.346;16.338;2023-12-14T03:18:55;5.45;;;4.18;;
26858;SDS011;14429;48.346;16.338;2023-12-14T03:21:20;5.55;;;3.40;;
26858;SDS011;14429;48.346;16.338;2023-12-14T03:23:46;6.00;;;3.58;;
26858;SDS011;14429;48.346;16.338;2023-12-14T03:26:11;5.63;;;3.58;;
26858;SDS011;14429;48.346;16.338;2023-12-14T03:28:36;5.15;;;3.63;;
26858;SDS011;14429;48.346;16.338;2023-12-14T03:31:04;15.75;;;8.30;;
26858;SDS011;14429;48.346;16.338;2023-12-14T03:33:29;4.75;;;3.20;;
26858;SDS011;14429;48.346;16.338;2023-12-14T03:35:54;13.05;;;4.97;;
26858;SDS011;14429;48.346;16.338;2023-12-14T03:38:20;6.57;;;3.75;;
26858;SDS011;14429;48.346;16.338;2023-12-14T03:40:45;4.78;;;3.28;;
26858;SDS011;14429;48.346;16.338;2023-12-14T03:43:11;4.75;;;3.05;;
26858;SDS011;14429;48.346;16.338;2023-12-14T03:45:36;5.03;;;3.45;;
26858;SDS011;14429;48.346;16.338;2023-12-14T03:48:03;5.95;;;3.50;;
26858;SDS011;14429;48.346;16.338;2023-12-14T03:50:29;6.95;;;3.60;;
26858;SDS011;14429;48.346;16.338;2023-12-14T03:52:54;7.88;;;3.65;;
26858;SDS011;14429;48.346;16.338;2023-12-14T03:55:20;6.03;;;3.55;;
26858;SDS011;14429;48.346;16.338;2023-12-14T03:57:45;10.63;;;6.32;;
26858;SDS011;14429;48.346;16.338;2023-12-14T04:00:11;11.00;;;6.15;;
26858;SDS011;14429;48.346;16.338;2023-12-14T04:02:37;7.88;;;3.47;;
26858;SDS011;14429;48.346;16.338;2023-12-14T04:05:05;6.18;;;3.25;;
26858;SDS011;14429;48.346;16.338;2023-12-14T04:07:31;7.00;;;3.88;;
26858;SDS011;14429;48.346;16.338;2023-12-14T04:09:56;5.72;;;3.20;;
26858;SDS011;14429;48.346;16.338;2023-12-14T04:12:22;8.18;;;3.97;;
26858;SDS011;14429;48.346;16.338;2023-12-14T04:14:47;4.43;;;2.92;;
26858;SDS011;14429;48.346;16.338;2023-12-14T04:17:13;7.05;;;3.30;;
26858;SDS011;14429;48.346;16.338;2023-12-14T04:19:38;5.68;;;3.72;;
26858;SDS011;14429;48.346;16.338;2023-12-14T04:22:05;4.82;;;3.38;;
26858;SDS011;14429;48.346;16.338;2023-12-14T04:24:31;5.57;;;3.13;;
26858;SDS011;14429;48.346;16.338;2023-12-14T04:26:56;14.05;;;6.25;;
26858;SDS011;14429;48.346;16.338;2023-12-14T04:29:22;4.55;;;3.30;;
26858;SDS011;14429;48.346;16.338;2023-12-14T04:31:47;9.27;;;4.15;;
26858;SDS011;14429;48.346;16.338;2023-12-14T04:34:13;10.18;;;5.75;;
26858;SDS011;14429;48.346;16.338;2023-12-14T04:36:38;7.22;;;3.70;;
26858;SDS011;14429;48.346;16.338;2023-12-14T04:39:05;8.60;;;4.70;;
26858;SDS011;14429;48.346;16.338;2023-12-14T04:41:30;11.45;;;7.10;;
26858;SDS011;14429;48.346;16.338;2023-12-14T04:43:56;4.35;;;3.22;;
26858;SDS011;14429;48.346;16.338;2023-12-14T04:46:21;5.22;;;3.60;;
26858;SDS011;14429;48.346;16.338;2023-12-14T04:48:46;5.13;;;3.20;;
26858;SDS011;14429;48.346;16.338;2023-12-14T04:51:12;9.07;;;5.10;;
26858;SDS011;14429;48.346;16.338;2023-12-14T04:53:37;5.03;;;3.78;;
26858;SDS011;14429;48.346;16.338;2023-12-14T04:56:04;9.45;;;5.18;;
26858;SDS011;14429;48.346;16.338;2023-12-14T04:58:30;25.65;;;11.95;;
26858;SDS011;14429;48.346;16.338;2023-12-14T05:00:56;13.85;;;6.78;;
26858;SDS011;14429;48.346;16.338;2023-12-14T05:03:21;12.05;;;5.28;;
26858;SDS011;14429;48.346;16.338;2023-12-14T05:05:46;23.83;;;12.23;;
26858;SDS011;14429;48.346;16.338;2023-12-14T05:08:12;21.00;;;9.82;;
26858;SDS011;14429;48.346;16.338;2023-12-14T05:10:37;22.60;;;10.38;;
26858;SDS011;14429;48.346;16.338;2023-12-14T05:13:04;21.08;;;10.75;;
26858;SDS011;14429;48.346;16.338;2023-12-14T05:15:30;19.58;;;9.55;;
26858;SDS011;14429;48.346;16.338;2023-12-14T05:17:55;19.55;;;8.70;;
26858;SDS011;14429;48.346;16.338;2023-12-14T05:20:20;9.98;;;6.10;;
26858;SDS011;14429;48.346;16.338;2023-12-14T05:22:46;5.63;;;3.88;;
26858;SDS011;14429;48.346;16.338;2023-12-14T05:25:11;6.57;;;3.80;;
26858;SDS011;14429;48.346;16.338;2023-12-14T05:27:37;7.40;;;3.72;;
26858;SDS011;14429;48.346;16.338;2023-12-14T05:30:04;6.55;;;3.97;;
26858;SDS011;14429;48.346;16.338;2023-12-14T05:32:31;11.65;;;6.15;;
26858;SDS011;14429;48.346;16.338;2023-12-14T05:34:56;17.60;;;7.63;;
26858;SDS011;14429;48.346;16.338;2023-12-14T05:37:22;5.68;;;3.60;;
26858;SDS011;14429;48.346;16.338;2023-12-14T05:39:47;6.93;;;4.22;;
26858;SDS011;14429;48.346;16.338;2023-12-14T05:42:15;8.07;;;5.00;;
26858;SDS011;14429;48.346;16.338;2023-12-14T05:44:41;4.20;;;3.30;;
26858;SDS011;14429;48.346;16.338;2023-12-14T05:47:08;18.92;;;9.45;;
26858;SDS011;14429;48.346;16.338;2023-12-14T05:49:33;5.93;;;3.42;;
26858;SDS011;14429;48.346;16.338;2023-12-14T05:51:58;16.42;;;7.60;;
26858;SDS011;14429;48.346;16.338;2023-12-14T05:54:24;9.98;;;3.78;;
26858;SDS011;14429;48.346;16.338;2023-12-14T05:56:50;7.03;;;3.75;;
26858;SDS011;14429;48.346;16.338;2023-12-14T05:59:15;6.40;;;3.80;;
26858;SDS011;14429;48.346;16.338;2023-12-14T06:01:41;5.85;;;3.55;;
26858;SDS011;14429;48.346;16.338;2023-12-14T06:04:07;5.15;;;3.20;;
26858;SDS011;14429;48.346;16.338;2023-12-14T06:06:33;17.75;;;7.53;;
26858;SDS011;14429;48.346;16.338;2023-12-14T06:08:59;6.38;;;3.53;;
26858;SDS011;14429;48.346;16.338;2023-12-14T06:11:24;3.65;;;2.70;;
26858;SDS011;14429;48.346;16.338;2023-12-14T06:13:49;5.38;;;3.33;;
26858;SDS011;14429;48.346;16.338;2023-12-14T06:16:15;5.22;;;3.08;;
26858;SDS011;14429;48.346;16.338;2023-12-14T06:18:40;4.35;;;3.10;;
26858;SDS011;14429;48.346;16.338;2023-12-14T06:21:07;6.15;;;3.83;;
26858;SDS011;14429;48.346;16.338;2023-12-14T06:23:33;5.45;;;2.88;;
26858;SDS011;14429;48.346;16.338;2023-12-14T06:25:58;4.30;;;3.08;;
26858;SDS011;14429;48.346;16.338;2023-12-14T06:28:24;6.38;;;3.95;;
26858;SDS011;14429;48.346;16.338;2023-12-14T06:30:49;5.50;;;3.28;;
26858;SDS011;14429;48.346;16.338;2023-12-14T06:33:15;6.70;;;4.10;;
26858;SDS011;14429;48.346;16.338;2023-12-14T06:35:40;5.72;;;3.40;;
26858;SDS011;14429;48.346;16.338;2023-12-14T06:38:07;5.10;;;3.90;;
26858;SDS011;14429;48.346;16.338;2023-12-14T06:40:33;6.28;;;3.05;;
26858;SDS011;14429;48.346;16.338;2023-12-14T06:42:58;5.95;;;3.35;;
26858;SDS011;14429;48.346;16.338;2023-12-14T06:45:23;5.88;;;3.80;;
26858;SDS011;14429;48.346;16.338;2023-12-14T06:47:49;5.65;;;3.33;;
26858;SDS011;14429;48.346;16.338;2023-12-14T06:50:14;4.90;;;3.08;;
26858;SDS011;14429;48.346;16.338;2023-12-14T06:52:40;6.47;;;3.85;;
26858;SDS011;14429;48.346;16.338;2023-12-14T06:55:07;5.90;;;3.13;;
26858;SDS011;14429;48.346;16.338;2023-12-14T06:57:33;4.88;;;3.20;;
26858;SDS011;14429;48.346;16.338;2023-12-14T06:59:58;5.50;;;3.20;;
26858;SDS011;14429;48.346;16.338;2023-12-14T07:02:23;5.43;;;3.67;;
26858;SDS011;14429;48.346;16.338;2023-12-14T07:04:49;6.38;;;3.60;;
26858;SDS011;14429;48.346;16.338;2023-12-14T07:07:14;5.80;;;3.55;;
26858;SDS011;14429;48.346;16.338;2023-12-14T07:09:40;6.15;;;3.70;;
26858;SDS011;14429;48.346;16.338;2023-12-14T07:12:07;5.38;;;3.60;;
26858;SDS011;14429;48.346;16.338;2023-12-14T07:14:33;5.30;;;3.05;;
26858;SDS011;14429;48.346;16.338;2023-12-14T07:16:58;5.45;;;3.42;;
26858;SDS011;14429;48.346;16.338;2023-12-14T07:19:24;5.20;;;3.33;;
26858;SDS011;14429;48.346;16.338;2023-12-14T07:21:49;4.82;;;2.88;;
26858;SDS011;14429;48.346;16.338;2023-12-14T07:24:15;5.25;;;3.33;;
26858;SDS011;14429;48.346;16.338;2023-12-14T07:26:40;4.82;;;3.53;;
26858;SDS011;14429;48.346;16.338;2023-12-14T07:29:07;4.28;;;3.10;;
26858;SDS011;14429;48.346;16.338;2023-12-14T07:31:32;5.25;;;3.05;;
26858;SDS011;14429;48.346;16.338;2023-12-14T07:33:58;5.07;;;3.17;;
26858;SDS011;14429;48.346;16.338;2023-12-14T07:36:23;5.85;;;3.50;;
26858;SDS011;14429;48.346;16.338;2023-12-14T07:38:49;3.92;;;2.65;;
26858;SDS011;14429;48.346;16.338;2023-12-14T07:41:14;4.68;;;3.50;;
26858;SDS011;14429;48.346;16.338;2023-12-14T07:43:39;5.68;;;2.72;;
26858;SDS011;14429;48.346;16.338;2023-12-14T07:46:06;5.93;;;3.10;;
26858;SDS011;14429;48.346;16.338;2023-12-14T07:48:32;3.85;;;2.63;;
26858;SDS011;14429;48.346;16.338;2023-12-14T07:50:57;4.70;;;3.08;;
26858;SDS011;14429;48.346;16.338;2023-12-14T07:53:22;4.95;;;3.10;;
26858;SDS011;14429;48.346;16.338;2023-12-14T07:55:48;4.65;;;2.83;;
26858;SDS011;14429;48.346;16.338;2023-12-14T07:58:13;5.55;;;2.78;;
26858;SDS011;14429;48.346;16.338;2023-12-14T08:00:39;4.72;;;2.95;;
26858;SDS011;14429;48.346;16.338;2023-12-14T08:03:05;4.72;;;2.70;;
26858;SDS011;14429;48.346;16.338;2023-12-14T08:05:31;3.53;;;1.27;;
26858;SDS011;14429;48.346;16.338;2023-12-14T08:07:56;4.15;;;2.40;;
26858;SDS011;14429;48.346;16.338;2023-12-14T08:10:22;4.50;;;3.00;;
26858;SDS011;14429;48.346;16.338;2023-12-14T08:12:47;5.65;;;2.50;;
26858;SDS011;14429;48.346;16.338;2023-12-14T08:15:13;4.63;;;2.80;;
26858;SDS011;14429;48.346;16.338;2023-12-14T08:17:38;4.00;;;2.85;;
26858;SDS011;14429;48.346;16.338;2023-12-14T08:20:05;5.45;;;2.95;;
26858;SDS011;14429;48.346;16.338;2023-12-14T08:22:32;4.80;;;3.03;;
26858;SDS011;14429;48.346;16.338;2023-12-14T08:24:57;4.43;;;2.78;;
26858;SDS011;14429;48.346;16.338;2023-12-14T08:27:22;6.60;;;2.90;;
26858;SDS011;14429;48.346;16.338;2023-12-14T08:29:48;3.05;;;2.20;;
26858;SDS011;14429;48.346;16.338;2023-12-14T08:32:13;4.57;;;2.63;;
26858;SDS011;14429;48.346;16.338;2023-12-14T08:34:40;3.35;;;2.22;;
26858;SDS011;14429;48.346;16.338;2023-12-14T08:37:06;4.70;;;2.67;;
26858;SDS011;14429;48.346;16.338;2023-12-14T08:39:32;3.38;;;2.35;;
26858;SDS011;14429;48.346;16.338;2023-12-14T08:41:57;3.25;;;2.17;;
26858;SDS011;14429;48.346;16.338;2023-12-14T08:44:23;2.97;;;2.08;;
26858;SDS011;14429;48.346;16.338;2023-12-14T08:46:48;3.63;;;2.03;;
26858;SDS011;14429;48.346;16.338;2023-12-14T08:49:13;4.00;;;2.47;;
26858;SDS011;14429;48.346;16.338;2023-12-14T08:51:39;3.60;;;2.40;;
26858;SDS011;14429;48.346;16.338;2023-12-14T08:54:06;3.50;;;2.22;;
26858;SDS011;14429;48.346;16.338;2023-12-14T08:56:31;2.88;;;1.90;;
26858;SDS011;14429;48.346;16.338;2023-12-14T08:58:57;4.20;;;2.05;;
26858;SDS011;14429;48.346;16.338;2023-12-14T09:01:22;3.53;;;2.13;;
26858;SDS011;14429;48.346;16.338;2023-12-14T09:03:48;3.65;;;2.55;;
26858;SDS011;14429;48.346;16.338;2023-12-14T09:06:14;5.15;;;2.53;;
26858;SDS011;14429;48.346;16.338;2023-12-14T09:08:39;3.42;;;2.17;;
26858;SDS011;14429;48.346;16.338;2023-12-14T09:11:06;2.45;;;2.08;;
26858;SDS011;14429;48.346;16.338;2023-12-14T09:13:31;5.50;;;2.50;;
26858;SDS011;14429;48.346;16.338;2023-12-14T09:15:57;2.17;;;1.80;;
26858;SDS011;14429;48.346;16.338;2023-12-14T09:18:22;2.78;;;1.77;;
26858;SDS011;14429;48.346;16.338;2023-12-14T09:20:48;3.40;;;2.22;;
26858;SDS011;14429;48.346;16.338;2023-12-14T09:23:13;3.28;;;1.88;;
26858;SDS011;14429;48.346;16.338;2023-12-14T09:25:38;3.00;;;2.20;;
26858;SDS011;14429;48.346;16.338;2023-12-14T09:28:05;2.58;;;2.28;;
26858;SDS011;14429;48.346;16.338;2023-12-14T09:30:30;3.05;;;2.22;;
26858;SDS011;14429;48.346;16.338;2023-12-14T09:32:56;4.00;;;2.00;;
26858;SDS011;14429;48.346;16.338;2023-12-14T09:35:21;3.58;;;2.22;;
26858;SDS011;14429;48.346;16.338;2023-12-14T09:37:47;3.33;;;1.80;;
26858;SDS011;14429;48.346;16.338;2023-12-14T09:40:12;3.70;;;2.20;;
26858;SDS011;14429;48.346;16.338;2023-12-14T09:42:38;2.90;;;1.95;;
26858;SDS011;14429;48.346;16.338;2023-12-14T09:45:05;2.20;;;1.45;;
26858;SDS011;14429;48.346;16.338;2023-12-14T09:47:31;4.22;;;1.92;;
26858;SDS011;14429;48.346;16.338;2023-12-14T09:49:57;4.05;;;2.45;;
26858;SDS011;14429;48.346;16.338;2023-12-14T09:52:23;2.72;;;2.15;;
26858;SDS011;14429;48.346;16.338;2023-12-14T09:54:49;2.85;;;1.85;;
26858;SDS011;14429;48.346;16.338;2023-12-14T09:57:14;1.83;;;1.63;;
26858;SDS011;14429;48.346;16.338;2023-12-14T09:59:40;3.20;;;1.92;;
26858;SDS011;14429;48.346;16.338;2023-12-14T10:02:10;3.53;;;2.05;;
26858;SDS011;14429;48.346;16.338;2023-12-14T10:04:36;2.33;;;1.35;;
26858;SDS011;14429;48.346;16.338;2023-12-14T10:07:02;3.13;;;2.10;;
26858;SDS011;14429;48.346;16.338;2023-12-14T10:09:28;2.97;;;1.73;;
26858;SDS011;14429;48.346;16.338;2023-12-14T10:12:01;2.85;;;2.15;;
26858;SDS011;14429;48.346;16.338;2023-12-14T10:14:28;2.70;;;1.60;;
26858;SDS011;14429;48.346;16.338;2023-12-14T10:16:53;2.13;;;1.70;;
26858;SDS011;14429;48.346;16.338;2023-12-14T10:19:21;3.42;;;2.53;;
26858;SDS011;14429;48.346;16.338;2023-12-14T10:21:47;2.53;;;1.45;;
26858;SDS011;14429;48.346;16.338;2023-12-14T10:24:12;3.38;;;2.53;;
26858;SDS011;14429;48.346;16.338;2023-12-14T10:26:38;3.90;;;2.13;;
26858;SDS011;14429;48.346;16.338;2023-12-14T10:29:04;3.35;;;1.65;;
26858;SDS011;14429;48.346;16.338;2023-12-14T10:31:30;2.08;;;1.70;;
26858;SDS011;14429;48.346;16.338;2023-12-14T10:33:55;2.35;;;1.80;;
26858;SDS011;14429;48.346;16.338;2023-12-14T10:36:24;3.42;;;2.20;;
26858;SDS011;14429;48.346;16.338;2023-12-14T10:38:51;2.50;;;1.90;;
26858;SDS011;14429;48.346;16.338;2023-12-14T10:41:18;2.35;;;1.80;;
26858;SDS011;14429;48.346;16.338;2023-12-14T10:43:48;2.65;;;1.75;;
26858;SDS011;14429;48.346;16.338;2023-12-14T10:46:15;3.05;;;1.70;;
26858;SDS011;14429;48.346;16.338;2023-12-14T10:48:41;2.05;;;1.65;;
26858;SDS011;14429;48.346;16.338;2023-12-14T10:51:10;2.25;;;1.77;;
26858;SDS011;14429;48.346;16.338;2023-12-14T10:53:38;3.17;;;1.77;;
26858;SDS011;14429;48.346;16.338;2023-12-14T10:56:05;4.22;;;1.58;;
26858;SDS011;14429;48.346;16.338;2023-12-14T10:58:44;3.17;;;1.77;;
26858;SDS011;14429;48.346;16.338;2023-12-14T11:01:12;2.70;;;1.88;;
26858;SDS011;14429;48.346;16.338;2023-12-14T11:03:39;2.47;;;1.50;;
26858;SDS011;14429;48.346;16.338;2023-12-14T11:06:15;3.15;;;1.83;;
26858;SDS011;14429;48.346;16.338;2023-12-14T11:08:58;4.10;;;1.67;;
26858;SDS011;14429;48.346;16.338;2023-12-14T11:11:27;1.67;;;1.45;;
26858;SDS011;14429;48.346;16.338;2023-12-14T11:13:53;1.98;;;1.63;;
26858;SDS011;14429;48.346;16.338;2023-12-14T11:16:19;2.05;;;1.55;;
26858;SDS011;14429;48.346;16.338;2023-12-14T11:18:45;4.28;;;2.10;;
26858;SDS011;14429;48.346;16.338;2023-12-14T11:21:10;2.92;;;1.65;;
26858;SDS011;14429;48.346;16.338;2023-12-14T11:23:43;3.22;;;1.60;;
26858;SDS011;14429;48.346;16.338;2023-12-14T11:26:10;4.50;;;2.30;;
26858;SDS011;14429;48.346;16.338;2023-12-14T11:28:36;4.68;;;1.73;;
26858;SDS011;14429;48.346;16.338;2023-12-14T11:31:03;2.97;;;1.83;;
26858;SDS011;14429;48.346;16.338;2023-12-14T11:33:29;2.33;;;1.70;;
26858;SDS011;14429;48.346;16.338;2023-12-14T11:35:54;3.53;;;1.92;;
26858;SDS011;14429;48.346;16.338;2023-12-14T11:38:20;2.20;;;1.60;;
26858;SDS011;14429;48.346;16.338;2023-12-14T11:40:46;2.35;;;1.75;;
26858;SDS011;14429;48.346;16.338;2023-12-14T11:43:13;2.13;;;1.45;;
26858;SDS011;14429;48.346;16.338;2023-12-14T11:45:39;1.90;;;1.50;;
26858;SDS011;14429;48.346;16.338;2023-12-14T11:48:06;3.30;;;2.10;;
26858;SDS011;14429;48.346;16.338;2023-12-14T11:50:32;2.00;;;1.52;;
26858;SDS011;14429;48.346;16.338;2023-12-14T11:53:00;2.05;;;1.60;;
26858;SDS011;14429;48.346;16.338;2023-12-14T11:55:25;2.55;;;1.52;;
26858;SDS011;14429;48.346;16.338;2023-12-14T11:57:51;1.95;;;1.60;;
26858;SDS011;14429;48.346;16.338;2023-12-14T12:00:18;1.95;;;1.45;;
26858;SDS011;14429;48.346;16.338;2023-12-14T12:02:48;2.95;;;1.63;;
26858;SDS011;14429;48.346;16.338;2023-12-14T12:05:14;1.55;;;1.25;;
26858;SDS011;14429;48.346;16.338;2023-12-14T12:07:39;2.13;;;1.75;;
26858;SDS011;14429;48.346;16.338;2023-12-14T12:10:05;2.33;;;1.73;;
26858;SDS011;14429;48.346;16.338;2023-12-14T12:12:32;1.55;;;1.33;;
26858;SDS011;14429;48.346;16.338;2023-12-14T12:14:58;2.55;;;1.58;;
26858;SDS011;14429;48.346;16.338;2023-12-14T12:17:25;1.85;;;1.33;;
26858;SDS011;14429;48.346;16.338;2023-12-14T12:19:50;1.30;;;1.20;;
26858;SDS011;14429;48.346;16.338;2023-12-14T12:22:15;1.95;;;1.55;;
26858;SDS011;14429;48.346;16.338;2023-12-14T12:24:41;1.92;;;1.42;;
26858;SDS011;14429;48.346;16.338;2023-12-14T12:27:06;2.42;;;1.65;;
26858;SDS011;14429;48.346;16.338;2023-12-14T12:29:32;2.70;;;1.60;;
26858;SDS011;14429;48.346;16.338;2023-12-14T12:31:57;1.85;;;1.48;;
26858;SDS011;14429;48.346;16.338;2023-12-14T12:34:24;2.67;;;1.45;;
26858;SDS011;14429;48.346;16.338;2023-12-14T12:36:50;1.75;;;1.50;;
26858;SDS011;14429;48.346;16.338;2023-12-14T12:39:15;1.90;;;1.50;;
26858;SDS011;14429;48.346;16.338;2023-12-14T12:41:41;1.27;;;1.17;;
26858;SDS011;14429;48.346;16.338;2023-12-14T12:44:06;3.58;;;2.05;;
26858;SDS011;14429;48.346;16.338;2023-12-14T12:46:32;1.70;;;1.25;;
26858;SDS011;14429;48.346;16.338;2023-12-14T12:48:57;3.17;;;1.80;;
26858;SDS011;14429;48.346;16.338;2023-12-14T12:51:24;1.75;;;1.42;;
26858;SDS011;14429;48.346;16.338;2023-12-14T12:53:49;2.85;;;1.60;;
26858;SDS011;14429;48.346;16.338;2023-12-14T12:56:15;3.97;;;2.13;;
26858;SDS011;14429;48.346;16.338;2023-12-14T12:58:40;2.85;;;1.70;;
26858;SDS011;14429;48.346;16.338;2023-12-14T13:01:06;4.00;;;2.42;;
26858;SDS011;14429;48.346;16.338;2023-12-14T13:03:31;2.58;;;1.60;;
26858;SDS011;14429;48.346;16.338;2023-12-14T13:05:57;3.03;;;2.22;;
26858;SDS011;14429;48.346;16.338;2023-12-14T13:08:23;1.50;;;1.35;;
26858;SDS011;14429;48.346;16.338;2023-12-14T13:10:49;1.95;;;1.60;;
26858;SDS011;14429;48.346;16.338;2023-12-14T13:13:14;2.33;;;1.73;;
26858;SDS011;14429;48.346;16.338;2023-12-14T13:15:39;2.20;;;1.60;;
26858;SDS011;14429;48.346;16.338;2023-12-14T13:18:05;1.65;;;1.17;;
26858;SDS011;14429;48.346;16.338;2023-12-14T13:20:30;2.00;;;1.60;;
26858;SDS011;14429;48.346;16.338;2023-12-14T13:22:56;2.40;;;1.35;;
26858;SDS011;14429;48.346;16.338;2023-12-14T13:25:22;2.35;;;1.73;;
26858;SDS011;14429;48.346;16.338;2023-12-14T13:27:48;3.17;;;1.50;;
26858;SDS011;14429;48.346;16.338;2023-12-14T13:30:13;1.48;;;1.20;;
26858;SDS011;14429;48.346;16.338;2023-12-14T13:32:39;2.00;;;1.50;;
26858;SDS011;14429;48.346;16.338;2023-12-14T13:35:05;2.65;;;1.92;;
26858;SDS011;14429;48.346;16.338;2023-12-14T13:37:30;1.90;;;1.38;;
26858;SDS011;14429;48.346;16.338;2023-12-14T13:39:56;1.95;;;1.65;;
26858;SDS011;14429;48.346;16.338;2023-12-14T13:42:22;2.53;;;1.60;;
26858;SDS011;14429;48.346;16.338;2023-12-14T13:44:48;2.33;;;1.70;;
26858;SDS011;14429;48.346;16.338;2023-12-14T13:47:13;2.95;;;1.55;;
26858;SDS011;14429;48.346;16.338;2023-12-14T13:49:39;1.85;;;1.30;;
26858;SDS011;14429;48.346;16.338;2023-12-14T13:52:04;1.73;;;1.27;;
26858;SDS011;14429;48.346;16.338;2023-12-14T13:54:29;1.60;;;1.27;;
26858;SDS011;14429;48.346;16.338;2023-12-14T13:56:55;2.17;;;1.50;;
26858;SDS011;14429;48.346;16.338;2023-12-14T13:59:21;4.80;;;1.70;;
26858;SDS011;14429;48.346;16.338;2023-12-14T14:01:47;1.95;;;1.33;;
26858;SDS011;14429;48.346;16.338;2023-12-14T14:04:12;1.80;;;1.52;;
26858;SDS011;14429;48.346;16.338;2023-12-14T14:06:38;1.60;;;1.45;;
26858;SDS011;14429;48.346;16.338;2023-12-14T14:09:03;2.20;;;1.63;;
26858;SDS011;14429;48.346;16.338;2023-12-14T14:11:28;3.13;;;1.42;;
26858;SDS011;14429;48.346;16.338;2023-12-14T14:13:54;4.05;;;1.83;;
26858;SDS011;14429;48.346;16.338;2023-12-14T14:16:21;5.40;;;1.58;;
26858;SDS011;14429;48.346;16.338;2023-12-14T14:18:46;2.40;;;1.30;;
26858;SDS011;14429;48.346;16.338;2023-12-14T14:21:11;1.25;;;1.15;;
26858;SDS011;14429;48.346;16.338;2023-12-14T14:23:37;2.22;;;1.00;;
26858;SDS011;14429;48.346;16.338;2023-12-14T14:26:02;2.75;;;1.55;;